< < Back
Terminal Aerodrome Forecast


Current Version              Previous Versions:   1  2  3  4  5  6  7  8  9  

Terminal Aerodrome Forecast

047
FTUS42 KCHS 030928 AAA
TAFCHS
TAF AMD
KCHS 030928Z 0309/0406 19005KT P6SM SCT020 BKN070
      TEMPO 0309/0312 BKN020
     FM031500 23012G18KT P6SM SCT020 BKN070
     FM040200 22005KT P6SM SCT060 BKN100=

Latest METAR

410
SAUS80 KWBC 031600 RRB
MTRCHS
METAR KCHS 031556Z 26008KT 10SM TS SCT030CB BKN045 BKN200 28/20 A2986
RMK AO2 RAB00E10 TSB23 SLP109 OCNL LTGIC SE-S TS SE-S MOV E
P0000 T02780200 $


USA.gov is the U.S. government's official web portal to all federal, state and local government web resources and services.